createdAt,value
2022-09-30T00:00:57.047Z,0.00
2022-09-30T00:01:57.088Z,0.00
2022-09-30T00:02:57.037Z,0.00
2022-09-30T00:03:56.988Z,0.00
2022-09-30T00:04:56.984Z,0.00
2022-09-30T00:05:57.003Z,0.00
2022-09-30T00:06:56.969Z,0.00
2022-09-30T00:07:56.963Z,0.00
2022-09-30T00:08:56.981Z,0.00
2022-09-30T00:09:56.946Z,0.00
2022-09-30T00:10:56.964Z,0.00
2022-09-30T00:11:56.918Z,0.00
2022-09-30T00:12:57.924Z,0.00
2022-09-30T00:13:56.925Z,0.00
2022-09-30T00:14:56.907Z,0.00
2022-09-30T00:15:56.976Z,0.00
2022-09-30T00:16:56.889Z,0.00
2022-09-30T00:17:56.877Z,0.00
2022-09-30T00:18:56.875Z,0.00
2022-09-30T00:19:56.879Z,0.00
2022-09-30T00:20:56.880Z,0.00
2022-09-30T00:21:56.855Z,0.00
2022-09-30T00:22:56.845Z,0.00
2022-09-30T00:23:56.827Z,0.00
2022-09-30T00:24:56.828Z,0.00
2022-09-30T00:25:56.846Z,0.00
2022-09-30T00:26:56.807Z,0.00
2022-09-30T00:27:56.798Z,0.00
2022-09-30T00:28:56.794Z,0.00
2022-09-30T00:29:56.788Z,0.00
2022-09-30T00:30:56.806Z,0.00
2022-09-30T00:31:56.787Z,0.00
2022-09-30T00:32:56.774Z,0.00
2022-09-30T00:33:56.752Z,0.00
2022-09-30T00:34:56.739Z,0.00
2022-09-30T00:35:56.761Z,0.00
2022-09-30T00:36:56.731Z,0.00
2022-09-30T00:37:56.721Z,0.00
2022-09-30T00:38:56.706Z,0.00
2022-09-30T00:39:56.705Z,0.00
2022-09-30T00:40:56.720Z,0.00
2022-09-30T00:41:56.681Z,0.00
2022-09-30T00:42:56.678Z,0.00
2022-09-30T00:43:56.658Z,0.00
2022-09-30T00:44:56.662Z,0.00
2022-09-30T00:45:56.678Z,0.00
2022-09-30T00:46:56.677Z,0.00
2022-09-30T00:47:56.630Z,0.00
2022-09-30T00:48:56.617Z,0.00
2022-09-30T00:49:56.612Z,0.00
2022-09-30T00:50:56.610Z,0.00
2022-09-30T00:51:56.622Z,0.00
2022-09-30T00:52:56.592Z,0.00
2022-09-30T00:53:56.581Z,0.00
2022-09-30T00:54:56.575Z,0.00
2022-09-30T00:55:56.570Z,0.00
2022-09-30T00:56:56.586Z,0.00
2022-09-30T00:57:56.557Z,0.00
2022-09-30T00:58:56.543Z,0.00
2022-09-30T00:59:56.536Z,0.00
2022-09-30T01:00:56.614Z,0.00
2022-09-30T01:01:56.607Z,0.00
2022-09-30T01:02:56.514Z,0.00
2022-09-30T01:03:56.505Z,0.00
2022-09-30T01:04:56.494Z,0.00
2022-09-30T01:05:56.479Z,0.00
2022-09-30T01:06:56.511Z,0.00
2022-09-30T01:07:56.465Z,0.00
2022-09-30T01:08:56.524Z,0.00
2022-09-30T01:09:56.447Z,0.00
2022-09-30T01:10:56.447Z,0.00
2022-09-30T01:11:56.465Z,0.00
2022-09-30T01:12:56.428Z,0.00
2022-09-30T01:13:56.428Z,0.00
2022-09-30T01:14:56.415Z,0.00
2022-09-30T01:15:56.461Z,0.00
2022-09-30T01:16:56.424Z,0.00
2022-09-30T01:17:56.389Z,0.00
2022-09-30T01:18:56.377Z,0.00
2022-09-30T01:19:56.371Z,0.00
2022-09-30T01:20:56.368Z,0.00
2022-09-30T01:21:56.384Z,0.00
2022-09-30T01:22:56.344Z,0.00
2022-09-30T01:23:56.339Z,0.00
2022-09-30T01:24:56.333Z,0.00
2022-09-30T01:25:56.330Z,0.00
2022-09-30T01:26:56.348Z,0.00
2022-09-30T01:27:56.304Z,0.00
2022-09-30T01:28:56.324Z,0.00
2022-09-30T01:29:56.295Z,0.00
2022-09-30T01:30:56.279Z,0.00
2022-09-30T01:32:15.173Z,0.00
2022-09-30T01:32:56.276Z,0.00
2022-09-30T01:33:56.265Z,0.00
2022-09-30T01:34:56.263Z,0.00
2022-09-30T01:35:56.265Z,0.00
2022-09-30T01:36:59.744Z,0.00
2022-09-30T01:37:56.223Z,0.00
2022-09-30T01:38:56.218Z,0.00
2022-09-30T01:39:56.214Z,0.00
2022-09-30T01:40:56.194Z,0.00
2022-09-30T01:41:56.223Z,0.00
2022-09-30T01:42:56.182Z,0.00
2022-09-30T01:43:56.178Z,0.00
2022-09-30T01:44:56.180Z,0.00
2022-09-30T01:45:56.163Z,0.00
2022-09-30T01:46:56.214Z,0.00
2022-09-30T01:47:56.142Z,0.00
2022-09-30T01:48:56.140Z,0.00
2022-09-30T01:49:56.132Z,0.00
2022-09-30T01:50:56.129Z,0.00
2022-09-30T01:51:56.118Z,0.00
2022-09-30T01:52:56.138Z,0.00
2022-09-30T01:53:56.107Z,0.00
2022-09-30T01:54:56.095Z,0.00
2022-09-30T01:55:56.083Z,0.00
2022-09-30T01:56:56.067Z,0.00
2022-09-30T01:57:56.085Z,0.00
2022-09-30T01:58:56.056Z,0.00
2022-09-30T01:59:56.054Z,0.00
2022-09-30T02:00:56.101Z,0.00
2022-09-30T02:01:57.081Z,0.00
2022-09-30T02:02:56.063Z,0.00
2022-09-30T02:03:56.019Z,0.00
2022-09-30T02:04:56.007Z,0.00
2022-09-30T02:05:55.996Z,0.00
2022-09-30T02:06:55.987Z,0.00
2022-09-30T02:07:56.026Z,0.00
2022-09-30T02:08:55.977Z,0.00
2022-09-30T02:09:55.961Z,0.00
2022-09-30T02:10:55.966Z,0.00
2022-09-30T02:11:55.979Z,0.00
2022-09-30T02:12:55.956Z,0.00
2022-09-30T02:13:55.937Z,0.00
2022-09-30T02:14:55.928Z,0.00
2022-09-30T02:15:55.974Z,0.00
2022-09-30T02:16:55.905Z,0.00
2022-09-30T02:17:55.928Z,0.00
2022-09-30T02:18:55.890Z,0.00
2022-09-30T02:19:55.886Z,0.00
2022-09-30T02:20:55.878Z,0.00
2022-09-30T02:21:55.872Z,0.00
2022-09-30T02:22:55.883Z,0.00
2022-09-30T02:23:55.852Z,0.00
2022-09-30T02:24:55.849Z,0.00
2022-09-30T02:25:55.831Z,0.00
2022-09-30T02:26:55.830Z,0.00
2022-09-30T02:27:55.845Z,0.00
2022-09-30T02:28:55.805Z,0.00
2022-09-30T02:29:55.804Z,0.00
2022-09-30T02:30:55.791Z,0.00
2022-09-30T02:31:55.779Z,0.00
2022-09-30T02:32:55.801Z,0.00
2022-09-30T02:33:55.763Z,0.00
2022-09-30T02:34:55.758Z,0.00
2022-09-30T02:35:55.757Z,0.00
2022-09-30T02:36:55.746Z,0.00
2022-09-30T02:37:55.765Z,0.00
2022-09-30T02:38:55.731Z,0.00
2022-09-30T02:39:55.701Z,0.00
2022-09-30T02:40:56.703Z,0.00
2022-09-30T02:41:55.706Z,0.00
2022-09-30T02:42:55.725Z,0.00
2022-09-30T02:43:55.689Z,0.00
2022-09-30T02:44:55.684Z,0.00
2022-09-30T02:45:55.677Z,0.00
2022-09-30T02:46:55.713Z,0.00
2022-09-30T02:47:55.682Z,0.00
2022-09-30T02:48:55.640Z,0.00
2022-09-30T02:49:55.631Z,0.00
2022-09-30T02:50:55.631Z,0.00
2022-09-30T02:51:55.621Z,0.00
2022-09-30T02:52:55.644Z,0.00
2022-09-30T02:53:55.608Z,0.00
2022-09-30T02:54:55.594Z,0.00
2022-09-30T02:55:55.588Z,0.00
2022-09-30T02:56:55.573Z,0.00
2022-09-30T02:57:55.595Z,0.00
2022-09-30T02:58:55.564Z,0.00
2022-09-30T03:00:14.450Z,0.00
2022-09-30T03:00:55.565Z,0.00
2022-09-30T03:01:55.598Z,0.00
2022-09-30T03:02:55.559Z,0.00
2022-09-30T03:03:55.526Z,0.00
2022-09-30T03:04:55.504Z,0.00
2022-09-30T03:05:55.503Z,0.00
2022-09-30T03:06:55.569Z,0.00
2022-09-30T03:07:55.517Z,0.00
2022-09-30T03:08:55.472Z,0.00
2022-09-30T03:09:55.461Z,0.00
2022-09-30T03:10:55.459Z,0.00
2022-09-30T03:11:55.449Z,0.00
2022-09-30T03:12:55.475Z,0.00
2022-09-30T03:13:55.430Z,0.00
2022-09-30T03:14:55.423Z,0.00
2022-09-30T03:15:55.473Z,0.00
2022-09-30T03:16:55.415Z,0.00
2022-09-30T03:17:55.396Z,0.00
2022-09-30T03:18:55.420Z,0.00
2022-09-30T03:19:55.388Z,0.00
2022-09-30T03:20:55.374Z,0.00
2022-09-30T03:21:55.363Z,0.00
2022-09-30T03:22:55.386Z,0.00
2022-09-30T03:23:55.356Z,0.00
2022-09-30T03:24:55.348Z,0.00
2022-09-30T03:25:55.337Z,0.00
2022-09-30T03:26:55.327Z,0.00
2022-09-30T03:27:55.359Z,0.00
2022-09-30T03:28:55.312Z,0.00
2022-09-30T03:29:55.306Z,0.00
2022-09-30T03:30:55.301Z,0.00
2022-09-30T03:31:55.292Z,0.00
2022-09-30T03:32:55.298Z,0.00
2022-09-30T03:33:55.295Z,0.00
2022-09-30T03:34:55.266Z,0.00
2022-09-30T03:35:55.259Z,0.00
2022-09-30T03:36:55.246Z,0.00
2022-09-30T03:37:55.267Z,0.00
2022-09-30T03:38:55.233Z,0.00
2022-09-30T03:39:55.223Z,0.00
2022-09-30T03:40:55.215Z,0.00
2022-09-30T03:41:55.205Z,0.00
2022-09-30T03:42:55.228Z,0.00
2022-09-30T03:43:55.194Z,0.00
2022-09-30T03:44:55.178Z,0.00
2022-09-30T03:45:55.171Z,0.00
2022-09-30T03:46:55.237Z,0.00
2022-09-30T03:47:55.184Z,0.00
2022-09-30T03:48:55.150Z,0.00
2022-09-30T03:49:55.133Z,0.00
2022-09-30T03:50:55.132Z,0.00
2022-09-30T03:51:58.511Z,0.00
2022-09-30T03:52:55.148Z,0.00
2022-09-30T03:53:55.104Z,0.00
2022-09-30T03:54:55.095Z,0.00
2022-09-30T03:55:55.094Z,0.00
2022-09-30T03:56:55.086Z,0.00
2022-09-30T03:57:55.109Z,0.00
2022-09-30T03:58:55.070Z,0.00
2022-09-30T03:59:55.057Z,0.00
2022-09-30T04:00:55.108Z,0.00
2022-09-30T04:01:55.067Z,0.00
2022-09-30T04:02:57.932Z,0.00
2022-09-30T04:03:56.020Z,0.00
2022-09-30T04:04:55.011Z,0.00
2022-09-30T04:05:55.011Z,0.00
2022-09-30T04:06:54.997Z,0.00
2022-09-30T04:07:55.029Z,0.00
2022-09-30T04:08:54.983Z,0.00
2022-09-30T04:09:54.976Z,0.00
2022-09-30T04:10:54.969Z,0.00
2022-09-30T04:11:54.959Z,0.00
2022-09-30T04:12:54.993Z,0.00
2022-09-30T04:13:54.945Z,0.00
2022-09-30T04:14:54.928Z,0.00
2022-09-30T04:15:55.007Z,0.00
2022-09-30T04:16:54.921Z,0.00
2022-09-30T04:17:54.937Z,0.00
2022-09-30T04:18:54.904Z,0.00
2022-09-30T04:19:54.901Z,0.00
2022-09-30T04:20:54.896Z,0.00
2022-09-30T04:21:54.883Z,0.00
2022-09-30T04:22:54.901Z,0.00
2022-09-30T04:23:54.867Z,0.00
2022-09-30T04:24:54.855Z,0.00
2022-09-30T04:25:54.849Z,0.00
2022-09-30T04:26:54.850Z,0.00
2022-09-30T04:27:54.861Z,0.00
2022-09-30T04:28:54.824Z,0.00
2022-09-30T04:29:54.820Z,0.00
2022-09-30T04:30:54.804Z,0.00
2022-09-30T04:31:54.829Z,0.00
2022-09-30T04:32:54.824Z,0.00
2022-09-30T04:33:54.787Z,0.00
2022-09-30T04:34:54.774Z,0.00
2022-09-30T04:35:54.766Z,0.00
2022-09-30T04:36:54.761Z,0.00
2022-09-30T04:37:54.776Z,0.00
2022-09-30T04:38:54.742Z,0.00
2022-09-30T04:39:54.735Z,0.00
2022-09-30T04:40:54.738Z,0.00
2022-09-30T04:41:54.714Z,0.00
2022-09-30T04:42:54.751Z,0.00
2022-09-30T04:43:54.706Z,0.00
2022-09-30T04:44:54.698Z,0.00
2022-09-30T04:45:54.732Z,0.00
2022-09-30T04:46:54.676Z,0.00
2022-09-30T04:47:54.698Z,0.00
2022-09-30T04:48:54.666Z,0.00
2022-09-30T04:49:54.658Z,0.00
2022-09-30T04:50:54.646Z,0.00
2022-09-30T04:51:54.639Z,0.00
2022-09-30T04:52:54.659Z,0.00
2022-09-30T04:53:54.621Z,4.00
2022-09-30T04:54:54.621Z,4.00
2022-09-30T04:55:54.618Z,0.00
2022-09-30T04:56:54.602Z,4.00
2022-09-30T04:57:54.615Z,4.00
2022-09-30T04:58:54.586Z,4.00
2022-09-30T04:59:54.571Z,4.00
2022-09-30T05:00:54.675Z,4.00
2022-09-30T05:01:54.600Z,8.00
2022-09-30T05:02:54.579Z,12.00
2022-09-30T05:03:54.545Z,12.00
2022-09-30T05:04:54.540Z,12.00
2022-09-30T05:05:54.533Z,16.00
2022-09-30T05:06:54.515Z,16.00
2022-09-30T05:07:54.534Z,20.00
2022-09-30T05:08:54.496Z,24.00
2022-09-30T05:09:54.491Z,28.00
2022-09-30T05:10:54.480Z,32.00
2022-09-30T05:11:54.468Z,36.00
2022-09-30T05:12:54.605Z,40.00
2022-09-30T05:13:54.460Z,44.00
2022-09-30T05:14:54.443Z,52.00
2022-09-30T05:15:54.498Z,60.00
2022-09-30T05:16:54.440Z,68.00
2022-09-30T05:17:54.455Z,72.00
2022-09-30T05:18:54.420Z,80.00
2022-09-30T05:19:54.417Z,92.00
2022-09-30T05:20:54.399Z,100.00
2022-09-30T05:21:54.396Z,108.00
2022-09-30T05:22:54.388Z,120.00
2022-09-30T05:23:54.408Z,128.00
2022-09-30T05:24:54.373Z,140.00
2022-09-30T05:25:54.368Z,152.00
2022-09-30T05:26:54.367Z,168.00
2022-09-30T05:27:54.381Z,176.00
2022-09-30T05:28:54.341Z,188.00
2022-09-30T05:29:54.329Z,200.00
2022-09-30T05:30:54.327Z,216.00
2022-09-30T05:31:54.365Z,232.00
2022-09-30T05:32:54.313Z,244.00
2022-09-30T05:33:57.850Z,256.00
2022-09-30T05:34:55.296Z,268.00
2022-09-30T05:35:54.286Z,288.00
2022-09-30T05:36:54.277Z,312.00
2022-09-30T05:37:54.268Z,332.00
2022-09-30T05:38:54.284Z,348.00
2022-09-30T05:39:54.245Z,372.00
2022-09-30T05:40:54.251Z,388.00
2022-09-30T05:41:54.237Z,404.00
2022-09-30T05:42:54.216Z,416.00
2022-09-30T05:43:54.247Z,432.00
2022-09-30T05:44:54.209Z,452.00
2022-09-30T05:45:54.204Z,480.00
2022-09-30T05:46:54.225Z,504.00
2022-09-30T05:47:54.187Z,520.00
2022-09-30T05:48:54.208Z,532.00
2022-09-30T05:49:56.181Z,540.00
2022-09-30T05:50:55.157Z,560.00
2022-09-30T05:51:54.154Z,572.00
2022-09-30T05:52:54.140Z,592.00
2022-09-30T05:53:54.158Z,620.00
2022-09-30T05:54:54.120Z,652.00
2022-09-30T05:55:54.122Z,680.00
2022-09-30T05:56:54.117Z,704.00
2022-09-30T05:57:54.099Z,728.00
2022-09-30T05:58:54.127Z,748.00
2022-09-30T05:59:54.083Z,780.00
2022-09-30T06:00:54.072Z,808.00
2022-09-30T06:01:54.178Z,856.00
2022-09-30T06:02:54.126Z,900.00
2022-09-30T06:03:54.092Z,920.00
2022-09-30T06:04:54.042Z,952.00
2022-09-30T06:05:54.038Z,992.00
2022-09-30T06:06:54.023Z,1024.00
2022-09-30T06:07:54.021Z,1064.00
2022-09-30T06:08:54.094Z,1132.00
2022-09-30T06:09:54.003Z,1164.00
2022-09-30T06:10:54.004Z,1204.00
2022-09-30T06:11:53.986Z,1252.00
2022-09-30T06:12:53.984Z,1300.00
2022-09-30T06:13:54.000Z,1328.00
2022-09-30T06:14:53.962Z,1360.00
2022-09-30T06:15:53.963Z,1372.00
2022-09-30T06:16:54.017Z,1380.00
2022-09-30T06:17:53.936Z,1388.00
2022-09-30T06:18:53.960Z,1424.00
2022-09-30T06:19:53.924Z,1460.00
2022-09-30T06:20:53.916Z,1504.00
2022-09-30T06:21:53.944Z,1556.00
2022-09-30T06:22:53.902Z,1600.00
2022-09-30T06:23:53.918Z,1632.00
2022-09-30T06:24:55.285Z,1656.00
2022-09-30T06:25:54.870Z,1716.00
2022-09-30T06:26:53.872Z,1784.00
2022-09-30T06:27:53.858Z,1808.00
2022-09-30T06:28:53.873Z,1828.00
2022-09-30T06:29:53.848Z,1828.00
2022-09-30T06:30:53.842Z,1868.00
2022-09-30T06:31:53.955Z,1912.00
2022-09-30T06:32:53.818Z,2008.00
2022-09-30T06:33:53.833Z,2072.00
2022-09-30T06:34:53.797Z,2088.00
2022-09-30T06:35:53.806Z,2072.00
2022-09-30T06:36:53.783Z,2020.00
2022-09-30T06:37:53.769Z,2012.00
2022-09-30T06:38:53.800Z,2060.00
2022-09-30T06:39:53.755Z,2148.00
2022-09-30T06:40:53.759Z,2188.00
2022-09-30T06:41:53.740Z,2220.00
2022-09-30T06:42:53.757Z,2288.00
2022-09-30T06:43:53.753Z,2276.00
2022-09-30T06:44:53.804Z,2256.00
2022-09-30T06:46:03.910Z,2276.00
2022-09-30T06:46:55.717Z,2276.00
2022-09-30T06:47:59.733Z,2284.00
2022-09-30T06:49:06.794Z,2316.00
2022-09-30T06:49:55.679Z,2364.00
2022-09-30T06:51:01.528Z,2384.00
2022-09-30T06:51:55.665Z,2380.00
2022-09-30T06:52:53.657Z,2300.00
2022-09-30T06:53:53.684Z,2304.00
2022-09-30T06:54:53.639Z,2368.00
2022-09-30T06:55:53.636Z,2420.00
2022-09-30T06:56:53.624Z,2392.00
2022-09-30T06:57:53.620Z,2368.00
2022-09-30T06:58:53.647Z,2400.00
2022-09-30T06:59:53.599Z,2468.00
2022-09-30T07:00:53.642Z,2508.00
2022-09-30T07:01:53.616Z,2548.00
2022-09-30T07:02:53.572Z,2560.00
2022-09-30T07:03:54.789Z,2580.00
2022-09-30T07:04:54.589Z,2672.00
2022-09-30T07:05:53.562Z,2716.00
2022-09-30T07:06:53.568Z,2820.00
2022-09-30T07:07:53.541Z,2912.00
2022-09-30T07:08:53.534Z,3016.00
2022-09-30T07:09:57.508Z,3148.00
2022-09-30T07:10:55.515Z,3196.00
2022-09-30T07:11:53.513Z,3244.00
2022-09-30T07:12:53.496Z,3296.00
2022-09-30T07:13:53.499Z,3340.00
2022-09-30T07:14:53.513Z,3360.00
2022-09-30T07:15:53.487Z,3416.00
2022-09-30T07:16:53.562Z,3504.00
2022-09-30T07:17:53.462Z,3584.00
2022-09-30T07:18:53.452Z,3716.00
2022-09-30T07:19:53.469Z,3772.00
2022-09-30T07:20:53.439Z,3920.00
2022-09-30T07:21:53.425Z,4124.00
2022-09-30T07:22:53.418Z,4200.00
2022-09-30T07:23:53.408Z,4308.00
2022-09-30T07:24:53.438Z,4268.00
2022-09-30T07:25:53.395Z,4232.00
2022-09-30T07:26:53.388Z,4220.00
2022-09-30T07:27:53.385Z,4264.00
2022-09-30T07:28:53.365Z,4320.00
2022-09-30T07:30:12.792Z,4276.00
2022-09-30T07:31:13.518Z,4200.00
2022-09-30T07:31:55.387Z,4252.00
2022-09-30T07:32:53.336Z,4284.00
2022-09-30T07:33:53.326Z,4412.00
2022-09-30T07:34:53.350Z,4568.00
2022-09-30T07:35:53.317Z,4644.00
2022-09-30T07:36:53.303Z,4640.00
2022-09-30T07:37:53.292Z,4612.00
2022-09-30T07:38:53.288Z,4640.00
2022-09-30T07:39:53.322Z,4684.00
2022-09-30T07:40:53.268Z,4784.00
2022-09-30T07:41:53.254Z,4980.00
2022-09-30T07:42:53.253Z,5180.00
2022-09-30T07:43:53.240Z,5244.00
2022-09-30T07:44:53.262Z,5368.00
2022-09-30T07:45:53.253Z,5368.00
2022-09-30T07:46:53.222Z,5448.00
2022-09-30T07:47:53.955Z,5628.00
2022-09-30T07:48:54.202Z,5636.00
2022-09-30T07:49:53.231Z,5588.00
2022-09-30T07:50:53.190Z,5468.00
2022-09-30T07:51:53.176Z,5776.00
2022-09-30T07:52:53.189Z,6328.00
2022-09-30T07:53:53.162Z,6592.00
2022-09-30T07:54:53.183Z,6512.00
2022-09-30T07:55:53.138Z,6340.00
2022-09-30T07:57:19.968Z,6440.00
2022-09-30T07:57:55.126Z,6560.00
2022-09-30T07:58:53.118Z,6448.00
2022-09-30T07:59:53.310Z,6444.00
2022-09-30T08:00:53.139Z,6508.00
2022-09-30T08:01:53.237Z,6436.00
2022-09-30T08:02:53.086Z,6420.00
2022-09-30T08:03:53.080Z,6468.00
2022-09-30T08:04:53.100Z,6028.00
2022-09-30T08:05:53.056Z,6100.00
2022-09-30T08:06:53.056Z,6448.00
2022-09-30T08:07:53.047Z,6768.00
2022-09-30T08:08:53.053Z,6780.00
2022-09-30T08:09:53.167Z,8532.00
2022-09-30T08:10:53.058Z,9108.00
2022-09-30T08:11:53.016Z,9464.00
2022-09-30T08:12:54.637Z,9060.00
2022-09-30T08:13:53.991Z,8336.00
2022-09-30T08:14:53.016Z,7992.00
2022-09-30T08:15:52.987Z,7356.00
2022-09-30T08:16:53.054Z,7060.00
2022-09-30T08:17:52.962Z,6784.00
2022-09-30T08:18:52.943Z,7224.00
2022-09-30T08:19:53.211Z,10148.00
2022-09-30T08:20:52.934Z,12152.00
2022-09-30T08:21:52.996Z,13156.00
2022-09-30T08:22:52.918Z,13656.00
2022-09-30T08:23:52.935Z,15088.00
2022-09-30T08:25:07.524Z,17728.00
2022-09-30T08:25:52.896Z,18144.00
2022-09-30T08:26:52.960Z,24224.00
2022-09-30T08:27:52.874Z,16092.00
2022-09-30T08:28:52.867Z,12416.00
2022-09-30T08:29:55.862Z,11608.00
2022-09-30T08:30:53.848Z,13056.00
2022-09-30T08:31:53.016Z,12428.00
2022-09-30T08:32:52.833Z,14048.00
2022-09-30T08:33:52.828Z,14820.00
2022-09-30T08:34:52.857Z,13152.00
2022-09-30T08:35:52.813Z,14672.00
2022-09-30T08:36:56.624Z,20640.00
2022-09-30T08:37:53.795Z,68096.00
2022-09-30T08:38:52.788Z,71872.00
2022-09-30T08:39:52.816Z,90112.00
2022-09-30T08:40:52.771Z,57536.00
2022-09-30T08:41:52.765Z,90592.00
2022-09-30T08:42:55.530Z,98656.00
2022-09-30T08:43:53.751Z,92576.00
2022-09-30T08:44:52.764Z,70240.00
2022-09-30T08:45:52.811Z,88000.00
2022-09-30T08:46:57.448Z,97056.00
2022-09-30T08:47:54.719Z,100736.00
2022-09-30T08:48:52.703Z,106880.00
2022-09-30T08:49:52.728Z,106304.00
2022-09-30T08:50:52.685Z,92640.00
2022-09-30T08:51:52.686Z,74528.00
2022-09-30T08:52:52.673Z,51488.00
2022-09-30T08:53:52.667Z,85536.00
2022-09-30T08:54:52.687Z,80000.00
2022-09-30T08:55:52.655Z,64832.00
2022-09-30T08:56:52.650Z,68672.00
2022-09-30T08:57:52.633Z,55552.00
2022-09-30T08:58:52.625Z,48864.00
2022-09-30T08:59:52.639Z,44928.00
2022-09-30T09:00:53.632Z,56736.00
2022-09-30T09:01:52.653Z,58880.00
2022-09-30T09:02:52.598Z,92640.00
2022-09-30T09:03:52.591Z,57952.00
2022-09-30T09:04:52.635Z,50112.00
2022-09-30T09:05:52.799Z,93664.00
2022-09-30T09:06:52.566Z,75936.00
2022-09-30T09:07:52.555Z,64416.00
2022-09-30T09:08:52.547Z,93568.00
2022-09-30T09:09:52.574Z,80320.00
2022-09-30T09:10:52.564Z,74592.00
2022-09-30T09:11:52.564Z,51136.00
2022-09-30T09:12:52.514Z,66464.00
2022-09-30T09:13:52.506Z,101280.00
2022-09-30T09:14:52.529Z,96448.00
2022-09-30T09:15:52.494Z,108384.00
2022-09-30T09:16:52.565Z,106464.00
2022-09-30T09:18:18.222Z,83872.00
2022-09-30T09:18:54.462Z,99104.00
2022-09-30T09:19:52.485Z,99552.00
2022-09-30T09:20:52.453Z,108160.00
2022-09-30T09:21:52.444Z,94048.00
2022-09-30T09:22:52.428Z,89824.00
2022-09-30T09:23:52.430Z,103488.00
2022-09-30T09:24:52.449Z,107456.00
2022-09-30T09:25:52.408Z,70624.00
2022-09-30T09:26:52.404Z,92704.00
2022-09-30T09:27:52.433Z,99744.00
2022-09-30T09:28:53.759Z,102944.00
2022-09-30T09:29:52.421Z,103264.00
2022-09-30T09:30:52.378Z,103616.00
2022-09-30T09:31:52.410Z,103552.00
2022-09-30T09:32:52.363Z,102432.00
2022-09-30T09:33:52.350Z,102208.00
2022-09-30T09:34:52.373Z,86816.00
2022-09-30T09:35:52.338Z,102496.00
2022-09-30T09:36:52.329Z,103456.00
2022-09-30T09:37:52.351Z,103328.00
2022-09-30T09:38:52.314Z,102176.00
2022-09-30T09:39:52.308Z,102240.00
2022-09-30T09:40:52.346Z,99904.00
2022-09-30T09:41:52.298Z,99360.00
2022-09-30T09:42:52.301Z,98560.00
2022-09-30T09:43:52.279Z,97376.00
2022-09-30T09:44:52.275Z,96160.00
2022-09-30T09:45:52.331Z,96896.00
2022-09-30T09:46:52.263Z,98368.00
2022-09-30T09:47:52.247Z,99392.00
2022-09-30T09:48:52.240Z,100064.00
2022-09-30T09:49:55.352Z,99520.00
2022-09-30T09:50:54.252Z,99680.00
2022-09-30T09:51:52.219Z,99520.00
2022-09-30T09:52:52.208Z,100064.00
2022-09-30T09:53:52.205Z,101568.00
2022-09-30T09:54:52.198Z,97952.00
2022-09-30T09:55:52.213Z,92672.00
2022-09-30T09:56:52.176Z,94784.00
2022-09-30T09:57:52.169Z,98496.00
2022-09-30T09:58:52.159Z,97984.00
2022-09-30T09:59:52.203Z,94912.00
2022-09-30T10:00:52.218Z,95104.00
2022-09-30T10:01:52.237Z,98816.00
2022-09-30T10:02:52.134Z,98240.00
2022-09-30T10:03:52.128Z,95168.00
2022-09-30T10:04:52.120Z,96192.00
2022-09-30T10:05:52.141Z,96576.00
2022-09-30T10:06:52.098Z,95424.00
2022-09-30T10:07:52.097Z,94400.00
2022-09-30T10:08:52.091Z,95328.00
2022-09-30T10:09:52.076Z,96608.00
2022-09-30T10:10:52.103Z,97504.00
2022-09-30T10:11:52.065Z,96928.00
2022-09-30T10:12:52.058Z,94912.00
2022-09-30T10:13:52.049Z,95744.00
2022-09-30T10:14:52.048Z,95744.00
2022-09-30T10:15:52.083Z,95552.00
2022-09-30T10:16:52.028Z,97376.00
2022-09-30T10:17:52.029Z,98752.00
2022-09-30T10:18:52.013Z,98112.00
2022-09-30T10:19:52.006Z,97216.00
2022-09-30T10:20:52.035Z,97184.00
2022-09-30T10:21:54.095Z,99008.00
2022-09-30T10:22:52.000Z,99008.00
2022-09-30T10:23:52.107Z,96896.00
2022-09-30T10:24:51.973Z,97312.00
2022-09-30T10:25:52.008Z,97600.00
2022-09-30T10:26:51.968Z,96256.00
2022-09-30T10:27:51.981Z,96000.00
2022-09-30T10:28:51.955Z,95616.00
2022-09-30T10:29:51.966Z,95392.00
2022-09-30T10:30:51.962Z,96768.00
2022-09-30T10:31:55.046Z,96224.00
2022-09-30T10:32:52.918Z,96960.00
2022-09-30T10:33:51.914Z,98080.00
2022-09-30T10:34:51.928Z,98976.00
2022-09-30T10:35:51.890Z,98336.00
2022-09-30T10:36:51.927Z,95424.00
2022-09-30T10:37:51.875Z,96128.00
2022-09-30T10:38:51.876Z,96128.00
2022-09-30T10:39:51.864Z,93888.00
2022-09-30T10:40:51.861Z,96000.00
2022-09-30T10:41:51.879Z,98464.00
2022-09-30T10:42:51.845Z,98304.00
2022-09-30T10:43:51.844Z,100128.00
2022-09-30T10:44:51.835Z,100672.00
2022-09-30T10:46:13.444Z,100288.00
2022-09-30T10:46:53.919Z,100832.00
2022-09-30T10:47:51.807Z,102048.00
2022-09-30T10:48:51.797Z,102080.00
2022-09-30T10:49:51.802Z,102560.00
2022-09-30T10:50:51.796Z,102240.00
2022-09-30T10:51:51.807Z,103264.00
2022-09-30T10:52:51.769Z,103104.00
2022-09-30T10:53:51.774Z,103424.00
2022-09-30T10:54:51.774Z,103968.00
2022-09-30T10:55:51.753Z,104352.00
2022-09-30T10:56:51.778Z,105344.00
2022-09-30T10:57:51.743Z,104128.00
2022-09-30T10:58:51.777Z,102720.00
2022-09-30T10:59:51.729Z,106176.00
2022-09-30T11:00:51.755Z,108192.00
2022-09-30T11:01:53.890Z,107936.00
2022-09-30T11:02:54.030Z,108096.00
2022-09-30T11:03:51.784Z,106400.00
2022-09-30T11:04:51.740Z,106656.00
2022-09-30T11:05:51.692Z,104512.00
2022-09-30T11:06:51.709Z,105472.00
2022-09-30T11:07:51.670Z,104768.00
2022-09-30T11:08:51.666Z,105728.00
2022-09-30T11:09:51.661Z,103008.00
2022-09-30T11:10:51.651Z,100416.00
2022-09-30T11:11:51.714Z,106080.00
2022-09-30T11:12:51.633Z,109408.00
2022-09-30T11:13:51.625Z,107872.00
2022-09-30T11:14:51.630Z,107936.00
2022-09-30T11:15:51.631Z,110304.00
2022-09-30T11:16:51.680Z,109824.00
2022-09-30T11:17:51.602Z,107904.00
2022-09-30T11:18:51.595Z,107712.00
2022-09-30T11:19:51.594Z,108384.00
2022-09-30T11:20:51.578Z,107136.00
2022-09-30T11:21:51.606Z,106752.00
2022-09-30T11:22:51.567Z,106432.00
2022-09-30T11:23:51.553Z,106656.00
2022-09-30T11:24:51.555Z,103648.00
2022-09-30T11:25:51.546Z,104192.00
2022-09-30T11:26:51.565Z,105056.00
2022-09-30T11:27:51.584Z,104384.00
2022-09-30T11:28:51.526Z,107008.00
2022-09-30T11:29:51.516Z,106336.00
2022-09-30T11:30:52.675Z,106144.00
2022-09-30T11:31:51.561Z,107104.00
2022-09-30T11:32:51.506Z,106656.00
2022-09-30T11:33:51.492Z,106304.00
2022-09-30T11:34:51.482Z,106176.00
2022-09-30T11:35:51.472Z,106400.00
2022-09-30T11:36:51.496Z,102208.00
2022-09-30T11:37:51.458Z,101024.00
2022-09-30T11:38:51.461Z,96832.00
2022-09-30T11:39:51.440Z,95360.00
2022-09-30T11:40:51.444Z,92832.00
2022-09-30T11:41:51.470Z,91296.00
2022-09-30T11:42:51.440Z,91072.00
2022-09-30T11:43:51.423Z,88416.00
2022-09-30T11:44:51.417Z,86144.00
2022-09-30T11:45:51.460Z,82560.00
2022-09-30T11:46:51.429Z,74016.00
2022-09-30T11:47:51.393Z,51360.00
2022-09-30T11:48:51.399Z,39424.00
2022-09-30T11:49:51.378Z,39264.00
2022-09-30T11:50:51.372Z,39392.00
2022-09-30T11:51:51.502Z,39488.00
2022-09-30T11:52:51.359Z,40352.00
2022-09-30T11:53:51.351Z,41440.00
2022-09-30T11:54:51.349Z,43520.00
2022-09-30T11:55:51.338Z,45024.00
2022-09-30T11:56:51.356Z,45472.00
2022-09-30T11:57:51.317Z,43392.00
2022-09-30T11:58:51.323Z,42560.00
2022-09-30T11:59:51.306Z,42016.00
2022-09-30T12:00:51.323Z,41248.00
2022-09-30T12:01:51.415Z,41152.00
2022-09-30T12:02:51.343Z,40192.00
2022-09-30T12:03:51.281Z,39008.00
2022-09-30T12:04:51.272Z,39456.00
2022-09-30T12:05:51.271Z,39776.00
2022-09-30T12:06:51.291Z,39200.00
2022-09-30T12:07:51.260Z,38336.00
2022-09-30T12:08:51.247Z,37728.00
2022-09-30T12:09:51.244Z,37440.00
2022-09-30T12:10:51.237Z,36608.00
2022-09-30T12:11:51.264Z,36576.00
2022-09-30T12:12:51.215Z,36992.00
2022-09-30T12:13:51.211Z,36896.00
2022-09-30T12:14:51.203Z,35680.00
2022-09-30T12:15:51.192Z,36192.00
2022-09-30T12:16:51.498Z,37888.00
2022-09-30T12:17:51.185Z,37152.00
2022-09-30T12:18:51.174Z,35680.00
2022-09-30T12:19:51.171Z,35552.00
2022-09-30T12:20:51.170Z,35424.00
2022-09-30T12:21:51.199Z,36256.00
2022-09-30T12:22:51.144Z,36512.00
2022-09-30T12:23:51.150Z,37280.00
2022-09-30T12:24:51.139Z,38400.00
2022-09-30T12:25:51.130Z,37664.00